Time,TemperatureF,DewpointF,PressureIn,WindDirection,WindDirectionDegrees,WindSpeedMPH,WindSpeedGustMPH,Humidity,HourlyPrecipIn,Conditions,Clouds,dailyrainin,SolarRadiationWatts/m^2,SoftwareType,DateUTC
2013-04-04 00:12:00,55.0,48.0,-100.00,SW,226,1.0,2.0,78,-99.99,,,0.00,0.000000,,2013-04-04 07:12:00,
2013-04-04 01:12:00,52.0,47.0,-100.00,SE,131,1.0,2.0,83,-99.99,,,0.00,0.000000,,2013-04-04 08:12:00,
2013-04-04 02:12:00,50.0,47.0,-100.00,SE,134,2.0,2.0,89,-99.99,,,0.00,0.000000,,2013-04-04 09:12:00,
2013-04-04 03:12:00,51.0,47.0,-100.00,ESE,122,1.0,2.0,87,-99.99,,,0.00,0.000000,,2013-04-04 10:12:00,
2013-04-04 04:12:00,51.0,48.0,-100.00,West,270,2.0,7.0,87,-99.99,,,0.00,0.000000,,2013-04-04 11:12:00,
2013-04-04 05:12:00,51.0,48.0,-100.00,SE,138,2.0,3.0,88,-99.99,,,-99.99,0.000000,,2013-04-04 12:12:00,
2013-04-04 06:12:00,52.0,48.0,-100.00,SE,129,2.0,5.0,88,-99.99,,,0.00,0.000000,,2013-04-04 13:12:00,
2013-04-04 07:12:00,51.0,49.0,-100.00,SSE,167,1.0,4.0,92,-99.99,,,-99.99,0.000000,,2013-04-04 14:12:00,
2013-04-04 08:12:00,50.0,49.0,-100.00,SSE,157,2.0,4.0,94,-99.99,,,0.00,8.140000,,2013-04-04 15:12:00,
2013-04-04 09:12:00,51.0,49.0,-100.00,ESE,102,1.0,4.0,91,-99.99,,,0.00,31.379999,,2013-04-04 16:12:00,
2013-04-04 10:13:00,53.0,50.0,-100.00,ESE,123,2.0,5.0,89,-99.99,,,0.00,41.840000,,2013-04-04 17:13:00,
2013-04-04 12:12:00,55.0,50.0,-100.00,SSE,152,2.0,3.0,84,-99.99,,,0.00,110.760002,,2013-04-04 19:12:00,
2013-04-04 13:12:00,54.0,50.0,-100.00,South,169,1.0,2.0,85,-99.99,,,0.00,92.389999,,2013-04-04 20:12:00,
2013-04-04 14:12:00,55.0,51.0,-100.00,SW,222,2.0,4.0,88,-99.99,,,0.00,203.270004,,2013-04-04 21:12:00,
2013-04-04 15:12:00,55.0,52.0,-100.00,SW,223,1.0,2.0,89,-99.99,,,0.00,127.959999,,2013-04-04 22:12:00,
2013-04-04 16:12:00,56.0,52.0,-100.00,ESE,122,1.0,2.0,88,-99.99,,,0.00,167.470001,,2013-04-04 23:12:00,
2013-04-04 17:12:00,56.0,54.0,-100.00,SSE,147,4.0,8.0,93,-99.99,,,0.01,330.299988,,2013-04-05 00:12:00,
2013-04-04 18:12:00,59.0,54.0,-100.00,WNW,299,3.0,6.0,84,-99.99,,,0.01,341.450012,,2013-04-05 01:12:00,
2013-04-04 19:12:00,61.0,52.0,-100.00,NNW,336,6.0,12.0,74,-99.99,,,0.01,262.769989,,2013-04-05 02:12:00,
2013-04-04 20:12:00,57.0,51.0,-100.00,ENE,71,3.0,6.0,78,-99.99,,,0.01,18.480000,,2013-04-05 03:12:00,
2013-04-04 21:12:00,56.0,51.0,-100.00,NNE,25,3.0,6.0,82,-99.99,,,0.01,0.000000,,2013-04-05 04:12:00,
2013-04-04 22:12:00,55.0,48.0,-100.00,SE,145,4.0,8.0,78,-99.99,,,0.01,0.000000,,2013-04-05 05:12:00,
2013-04-04 23:12:00,54.0,48.0,-100.00,NNE,33,2.0,5.0,77,-99.99,,,0.01,0.000000,,2013-04-05 06:12:00,